Time,TemperatureF,DewpointF,PressureIn,WindDirection,WindDirectionDegrees,WindSpeedMPH,WindSpeedGustMPH,Humidity,HourlyPrecipIn,Conditions,Clouds,dailyrainin,SoftwareType,DateUTC
2013-06-19 00:02:00,66.0,60.3,29.85,WSW,258,16.1,16.1,82,0.00,CLR,,0.00,WeatherDisplay:10.37,2013-06-18 22:02:00,
2013-06-19 00:07:00,66.1,60.1,29.85,West,262,18.4,18.4,81,0.00,CLR,,0.00,WeatherDisplay:10.37,2013-06-18 22:07:00,
2013-06-19 00:12:00,66.1,59.7,29.85,WSW,245,20.0,20.0,80,0.00,CLR,,0.00,WeatherDisplay:10.37,2013-06-18 22:12:00,
2013-06-19 00:17:00,66.1,59.7,29.85,SW,231,20.7,20.7,80,0.00,CLR,,0.00,WeatherDisplay:10.37,2013-06-18 22:17:00,
2013-06-19 00:22:00,66.1,59.4,29.85,WSW,237,17.3,17.3,79,0.00,CLR,,0.00,WeatherDisplay:10.37,2013-06-18 22:22:00,
2013-06-19 00:27:00,66.1,59.7,29.85,WSW,247,19.6,19.6,80,0.00,CLR,,0.00,WeatherDisplay:10.37,2013-06-18 22:27:00,
2013-06-19 00:32:00,66.0,59.3,29.85,West,260,16.1,16.1,79,0.00,CLR,,0.00,WeatherDisplay:10.37,2013-06-18 22:32:00,
2013-06-19 00:37:00,66.0,59.3,29.85,WSW,246,19.6,19.6,79,0.00,CLR,,0.00,WeatherDisplay:10.37,2013-06-18 22:37:00,
2013-06-19 00:42:00,66.1,59.4,29.85,SW,228,19.6,19.6,79,0.00,CLR,,0.00,WeatherDisplay:10.37,2013-06-18 22:42:00,
2013-06-19 00:47:00,66.0,59.3,29.85,SW,234,15.0,15.0,79,0.00,CLR,,0.00,WeatherDisplay:10.37,2013-06-18 22:47:00,
2013-06-19 00:52:00,66.0,59.3,29.85,SW,233,18.4,18.4,79,0.00,CLR,,0.00,WeatherDisplay:10.37,2013-06-18 22:52:00,
2013-06-19 00:57:00,66.0,59.3,29.85,WSW,245,12.7,12.7,79,0.00,CLR,,0.00,WeatherDisplay:10.37,2013-06-18 22:57:00,
2013-06-19 01:02:00,65.9,59.2,29.85,WSW,243,12.0,12.0,79,0.00,CLR,,0.00,WeatherDisplay:10.37,2013-06-18 23:02:00,
2013-06-19 01:07:00,65.9,59.2,29.84,WSW,245,17.3,17.3,79,0.00,CLR,,0.00,WeatherDisplay:10.37,2013-06-18 23:07:00,
2013-06-19 01:12:00,65.9,59.2,29.84,SW,231,18.4,18.4,79,0.00,CLR,,0.00,WeatherDisplay:10.37,2013-06-18 23:12:00,
2013-06-19 01:17:00,65.8,59.1,29.84,SW,230,13.8,13.8,79,0.00,CLR,,0.00,WeatherDisplay:10.37,2013-06-18 23:17:00,
2013-06-19 01:22:00,65.7,59.4,29.84,SW,226,17.3,17.3,80,0.00,CLR,,0.00,WeatherDisplay:10.37,2013-06-18 23:22:00,
2013-06-19 01:27:00,65.7,59.4,29.84,WSW,237,12.7,12.7,80,0.00,CLR,,0.00,WeatherDisplay:10.37,2013-06-18 23:27:00,
2013-06-19 01:32:00,65.5,59.2,29.84,WSW,239,11.5,11.5,80,0.00,CLR,,0.00,WeatherDisplay:10.37,2013-06-18 23:32:00,
2013-06-19 01:37:00,65.4,59.1,29.84,West,265,12.7,12.7,80,0.00,CLR,,0.00,WeatherDisplay:10.37,2013-06-18 23:37:00,
2013-06-19 01:42:00,65.4,59.1,29.84,WSW,256,15.0,15.0,80,0.00,CLR,,0.00,WeatherDisplay:10.37,2013-06-18 23:42:00,
2013-06-19 01:47:00,65.4,58.7,29.84,SW,229,15.0,15.0,79,0.00,CLR,,0.00,WeatherDisplay:10.37,2013-06-18 23:47:00,
2013-06-19 01:52:00,65.4,58.7,29.84,SW,235,16.1,16.1,79,0.00,CLR,,0.00,WeatherDisplay:10.37,2013-06-18 23:52:00,
2013-06-19 01:57:00,65.3,58.6,29.84,WSW,257,15.0,15.0,79,0.00,CLR,,0.00,WeatherDisplay:10.37,2013-06-18 23:57:00,
2013-06-19 02:02:00,65.2,58.5,29.84,WSW,238,16.1,16.1,79,0.00,CLR,,0.00,WeatherDisplay:10.37,2013-06-19 00:02:00,
2013-06-19 02:07:00,65.1,58.8,29.84,WSW,237,17.3,17.3,80,0.00,CLR,,0.00,WeatherDisplay:10.37,2013-06-19 00:07:00,
2013-06-19 02:12:00,65.1,58.8,29.84,SW,232,15.0,15.0,80,0.00,CLR,,0.00,WeatherDisplay:10.37,2013-06-19 00:12:00,
2013-06-19 02:17:00,65.1,59.1,29.84,SW,232,15.0,15.0,81,0.00,CLR,,0.00,WeatherDisplay:10.37,2013-06-19 00:17:00,
2013-06-19 02:22:00,65.0,59.0,29.84,WSW,242,17.3,17.3,81,0.00,CLR,,0.00,WeatherDisplay:10.37,2013-06-19 00:22:00,
2013-06-19 02:27:00,64.9,58.9,29.84,WSW,242,17.3,17.3,81,0.00,CLR,,0.00,WeatherDisplay:10.37,2013-06-19 00:27:00,
2013-06-19 02:32:00,64.8,59.2,29.85,SW,233,12.7,12.7,82,0.00,CLR,,0.00,WeatherDisplay:10.37,2013-06-19 00:32:00,
2013-06-19 02:37:00,64.7,59.1,29.85,WSW,242,14.0,14.0,82,0.00,CLR,,0.00,WeatherDisplay:10.37,2013-06-19 00:37:00,
2013-06-19 02:42:00,64.6,59.0,29.85,SW,227,17.3,17.3,82,0.00,CLR,,0.00,WeatherDisplay:10.37,2013-06-19 00:42:00,
2013-06-19 02:47:00,64.6,59.0,29.84,WSW,239,13.8,13.8,82,0.00,CLR,,0.00,WeatherDisplay:10.37,2013-06-19 00:47:00,
2013-06-19 02:52:00,64.5,59.2,29.85,SW,229,13.8,13.8,83,0.00,CLR,,0.00,WeatherDisplay:10.37,2013-06-19 00:52:00,
2013-06-19 02:57:00,64.4,59.1,29.85,WSW,239,10.4,10.4,83,0.00,CLR,,0.00,WeatherDisplay:10.37,2013-06-19 00:57:00,
2013-06-19 03:02:00,64.3,59.0,29.85,WSW,249,11.5,11.5,83,0.00,CLR,,0.00,WeatherDisplay:10.37,2013-06-19 01:02:00,
2013-06-19 03:07:00,64.2,58.9,29.85,WSW,246,9.2,9.2,83,0.00,CLR,,0.00,WeatherDisplay:10.37,2013-06-19 01:07:00,
2013-06-19 03:12:00,64.2,58.9,29.85,WSW,241,12.7,12.7,83,0.00,CLR,,0.00,WeatherDisplay:10.37,2013-06-19 01:12:00,
2013-06-19 03:17:00,64.2,58.9,29.84,WSW,242,14.0,14.0,83,0.00,CLR,,0.00,WeatherDisplay:10.37,2013-06-19 01:17:00,
2013-06-19 03:22:00,64.3,59.4,29.84,SW,236,15.0,15.0,84,0.00,CLR,,0.00,WeatherDisplay:10.37,2013-06-19 01:22:00,
2013-06-19 03:27:00,64.3,59.4,29.84,SW,235,12.7,12.7,84,0.00,CLR,,0.00,WeatherDisplay:10.37,2013-06-19 01:27:00,
2013-06-19 03:32:00,64.2,59.3,29.84,SW,227,11.5,11.5,84,0.00,CLR,,0.00,WeatherDisplay:10.37,2013-06-19 01:32:00,
2013-06-19 03:37:00,64.0,59.1,29.84,SW,235,13.8,13.8,84,0.00,CLR,,0.00,WeatherDisplay:10.37,2013-06-19 01:37:00,
2013-06-19 03:42:00,64.0,59.1,29.84,SW,224,15.0,15.0,84,0.00,CLR,,0.00,WeatherDisplay:10.37,2013-06-19 01:42:00,
2013-06-19 03:47:00,64.0,59.4,29.84,WSW,239,16.1,16.1,85,0.00,CLR,,0.00,WeatherDisplay:10.37,2013-06-19 01:47:00,
2013-06-19 03:52:00,64.0,59.4,29.84,SW,220,16.1,16.1,85,0.00,CLR,,0.00,WeatherDisplay:10.37,2013-06-19 01:52:00,
2013-06-19 03:57:00,64.2,59.6,29.84,SW,226,18.4,18.4,85,0.00,CLR,,0.00,WeatherDisplay:10.37,2013-06-19 01:57:00,
2013-06-19 04:02:00,64.2,59.6,29.84,SW,224,17.3,17.3,85,0.00,CLR,,0.00,WeatherDisplay:10.37,2013-06-19 02:02:00,
2013-06-19 04:07:00,64.3,59.7,29.84,SW,231,18.4,18.4,85,0.00,CLR,,0.00,WeatherDisplay:10.37,2013-06-19 02:07:00,
2013-06-19 04:12:00,64.3,59.7,29.84,WSW,239,19.6,19.6,85,0.00,CLR,,0.00,WeatherDisplay:10.37,2013-06-19 02:12:00,
2013-06-19 04:17:00,64.1,59.5,29.83,SW,231,15.0,15.0,85,0.00,CLR,,0.00,WeatherDisplay:10.37,2013-06-19 02:17:00,
2013-06-19 04:22:00,64.1,59.5,29.83,SW,220,16.1,16.1,85,0.00,CLR,,0.00,WeatherDisplay:10.37,2013-06-19 02:22:00,
2013-06-19 04:27:00,64.0,59.4,29.84,SW,227,16.1,16.1,85,0.00,CLR,,0.00,WeatherDisplay:10.37,2013-06-19 02:27:00,
2013-06-19 04:32:00,64.1,59.5,29.84,SW,233,17.3,17.3,85,0.00,CLR,,0.00,WeatherDisplay:10.37,2013-06-19 02:32:00,
2013-06-19 04:37:00,64.0,59.4,29.83,SW,226,15.0,15.0,85,0.00,CLR,,0.00,WeatherDisplay:10.37,2013-06-19 02:37:00,
2013-06-19 04:42:00,63.9,59.3,29.83,SW,222,15.0,15.0,85,0.00,CLR,,0.00,WeatherDisplay:10.37,2013-06-19 02:42:00,
2013-06-19 04:47:00,63.8,59.5,29.83,SW,222,11.5,11.5,86,0.00,CLR,,0.00,WeatherDisplay:10.37,2013-06-19 02:47:00,
2013-06-19 04:52:00,63.7,59.4,29.84,SW,220,13.0,13.0,86,0.00,CLR,,0.00,WeatherDisplay:10.37,2013-06-19 02:52:00,
2013-06-19 04:57:00,63.6,59.3,29.84,SW,226,11.5,11.5,86,0.00,CLR,,0.00,WeatherDisplay:10.37,2013-06-19 02:57:00,
2013-06-19 05:02:00,63.5,59.6,29.84,SW,219,11.5,11.5,87,0.00,CLR,,0.00,WeatherDisplay:10.37,2013-06-19 03:02:00,
2013-06-19 05:07:00,63.5,59.6,29.84,SW,218,11.5,11.5,87,0.00,CLR,,0.00,WeatherDisplay:10.37,2013-06-19 03:07:00,
2013-06-19 05:12:00,63.5,59.6,29.84,SW,234,11.5,11.5,87,0.00,CLR,,0.00,WeatherDisplay:10.37,2013-06-19 03:12:00,
2013-06-19 05:17:00,63.5,59.6,29.84,SSW,212,10.4,10.4,87,0.00,CLR,,0.00,WeatherDisplay:10.37,2013-06-19 03:17:00,
2013-06-19 05:22:00,63.3,59.4,29.84,SW,221,10.4,10.4,87,0.00,CLR,,0.00,WeatherDisplay:10.37,2013-06-19 03:22:00,
2013-06-19 05:27:00,63.3,59.4,29.84,SW,223,10.4,10.4,87,0.00,CLR,,0.00,WeatherDisplay:10.37,2013-06-19 03:27:00,
2013-06-19 05:32:00,63.3,59.7,29.84,SW,227,11.5,11.5,88,0.00,CLR,,0.00,WeatherDisplay:10.37,2013-06-19 03:32:00,
2013-06-19 05:37:00,63.3,59.7,29.84,SW,231,11.5,11.5,88,0.00,CLR,,0.00,WeatherDisplay:10.37,2013-06-19 03:37:00,
2013-06-19 05:42:00,63.5,59.9,29.84,SW,223,11.5,11.5,88,0.00,CLR,,0.00,WeatherDisplay:10.37,2013-06-19 03:42:00,
2013-06-19 05:47:00,63.4,59.8,29.84,SW,214,9.2,9.2,88,0.00,CLR,,0.00,WeatherDisplay:10.37,2013-06-19 03:47:00,
2013-06-19 05:52:00,63.4,59.8,29.84,SSW,206,8.1,8.1,88,0.00,CLR,,0.00,WeatherDisplay:10.37,2013-06-19 03:52:00,
2013-06-19 05:57:00,63.4,59.8,29.85,SSW,193,8.1,8.1,88,0.00,CLR,,0.00,WeatherDisplay:10.37,2013-06-19 03:57:00,
2013-06-19 06:01:00,63.5,59.9,29.85,SW,227,9.2,9.2,88,0.00,CLR,,0.00,WeatherDisplay:10.37,2013-06-19 04:01:00,
2013-06-19 06:06:00,63.5,59.9,29.85,SW,216,10.4,10.4,88,0.00,CLR,,0.00,WeatherDisplay:10.37,2013-06-19 04:06:00,
2013-06-19 06:11:00,63.4,60.1,29.84,SW,216,10.4,10.4,89,0.00,CLR,,0.00,WeatherDisplay:10.37,2013-06-19 04:11:00,
2013-06-19 06:16:00,63.2,59.9,29.84,SW,220,9.2,9.2,89,0.00,CLR,,0.00,WeatherDisplay:10.37,2013-06-19 04:16:00,
2013-06-19 06:21:00,63.3,60.0,29.84,SW,222,10.0,10.0,89,0.00,CLR,,0.00,WeatherDisplay:10.37,2013-06-19 04:21:00,
2013-06-19 06:26:00,63.4,60.1,29.84,SW,224,10.4,10.4,89,0.00,CLR,,0.00,WeatherDisplay:10.37,2013-06-19 04:26:00,
2013-06-19 06:31:00,63.4,60.1,29.85,SSW,206,8.1,8.1,89,0.00,CLR,,0.00,WeatherDisplay:10.37,2013-06-19 04:31:00,
2013-06-19 06:36:00,63.5,60.2,29.85,SSW,210,9.2,9.2,89,0.00,CLR,,0.00,WeatherDisplay:10.37,2013-06-19 04:36:00,
2013-06-19 06:41:00,63.7,60.4,29.85,SSW,196,6.9,6.9,89,0.00,CLR,,0.00,WeatherDisplay:10.37,2013-06-19 04:41:00,
2013-06-19 06:46:00,63.7,60.4,29.85,SSW,207,7.0,7.0,89,0.00,CLR,,0.00,WeatherDisplay:10.37,2013-06-19 04:46:00,
2013-06-19 06:51:00,63.8,60.5,29.85,SSW,212,6.9,6.9,89,0.00,CLR,,0.00,WeatherDisplay:10.37,2013-06-19 04:51:00,
2013-06-19 06:56:00,63.9,60.6,29.85,SW,220,8.1,8.1,89,0.00,CLR,,0.00,WeatherDisplay:10.37,2013-06-19 04:56:00,
2013-06-19 07:01:00,64.0,60.7,29.85,SSW,213,6.9,6.9,89,0.00,CLR,,0.00,WeatherDisplay:10.37,2013-06-19 05:01:00,
2013-06-19 07:06:00,64.2,60.9,29.85,SSW,212,6.9,6.9,89,0.00,CLR,,0.00,WeatherDisplay:10.37,2013-06-19 05:06:00,
2013-06-19 07:11:00,64.2,60.9,29.86,SW,214,8.1,8.1,89,0.00,CLR,,0.00,WeatherDisplay:10.37,2013-06-19 05:11:00,
2013-06-19 07:16:00,64.2,60.9,29.86,SW,214,6.9,6.9,89,0.00,CLR,,0.00,WeatherDisplay:10.37,2013-06-19 05:16:00,
2013-06-19 07:21:00,64.4,61.1,29.86,SW,216,5.8,5.8,89,0.00,CLR,,0.00,WeatherDisplay:10.37,2013-06-19 05:21:00,
2013-06-19 07:26:00,64.5,60.9,29.86,SW,233,6.9,6.9,88,0.00,CLR,,0.00,WeatherDisplay:10.37,2013-06-19 05:26:00,
2013-06-19 07:31:00,64.4,60.8,29.86,SW,226,6.9,6.9,88,0.00,CLR,,0.00,WeatherDisplay:10.37,2013-06-19 05:31:00,
2013-06-19 07:36:00,64.5,60.9,29.86,SW,235,6.9,6.9,88,0.00,CLR,,0.00,WeatherDisplay:10.37,2013-06-19 05:36:00,
2013-06-19 07:41:00,64.7,61.1,29.86,SW,228,5.8,5.8,88,0.00,CLR,,0.00,WeatherDisplay:10.37,2013-06-19 05:41:00,
2013-06-19 07:46:00,64.9,61.3,29.87,SW,221,4.0,4.0,88,0.00,CLR,,0.00,WeatherDisplay:10.37,2013-06-19 05:46:00,
2013-06-19 07:51:00,65.1,61.5,29.87,SW,231,4.0,4.0,88,0.00,CLR,,0.00,WeatherDisplay:10.37,2013-06-19 05:51:00,
2013-06-19 07:56:00,65.2,61.2,29.87,SSW,206,4.6,4.6,87,0.00,CLR,,0.00,WeatherDisplay:10.37,2013-06-19 05:56:00,
2013-06-19 08:01:00,65.4,61.4,29.87,SW,219,5.8,5.8,87,0.00,CLR,,0.00,WeatherDisplay:10.37,2013-06-19 06:01:00,
2013-06-19 08:06:00,65.6,61.6,29.87,SW,235,5.8,5.8,87,0.00,CLR,,0.00,WeatherDisplay:10.37,2013-06-19 06:06:00,
2013-06-19 08:11:00,65.8,61.8,29.87,SSW,208,5.8,5.8,87,0.00,CLR,,0.00,WeatherDisplay:10.37,2013-06-19 06:11:00,
2013-06-19 08:16:00,66.1,61.8,29.87,SSW,200,7.0,7.0,86,0.00,CLR,,0.00,WeatherDisplay:10.37,2013-06-19 06:16:00,
2013-06-19 08:21:00,66.3,62.0,29.87,South,185,6.9,6.9,86,0.00,CLR,,0.00,WeatherDisplay:10.37,2013-06-19 06:21:00,
2013-06-19 08:26:00,66.4,62.1,29.88,SW,222,7.0,7.0,86,0.00,CLR,,0.00,WeatherDisplay:10.37,2013-06-19 06:26:00,
2013-06-19 08:31:00,66.6,61.9,29.88,SW,220,8.1,8.1,85,0.00,CLR,,0.00,WeatherDisplay:10.37,2013-06-19 06:31:00,
2013-06-19 08:36:00,66.7,62.0,29.88,SW,231,6.9,6.9,85,0.00,CLR,,0.00,WeatherDisplay:10.37,2013-06-19 06:36:00,
2013-06-19 08:41:00,66.8,61.5,29.88,SW,222,5.8,5.8,83,0.00,CLR,,0.00,WeatherDisplay:10.37,2013-06-19 06:41:00,
2013-06-19 08:46:00,67.3,62.0,29.88,SSW,199,8.1,8.1,83,0.00,CLR,,0.00,WeatherDisplay:10.37,2013-06-19 06:46:00,
2013-06-19 08:51:00,67.8,62.1,29.88,WSW,243,4.6,4.6,82,0.00,CLR,,0.00,WeatherDisplay:10.37,2013-06-19 06:51:00,
2013-06-19 08:56:00,68.1,62.0,29.89,SW,218,7.0,7.0,81,0.00,CLR,,0.00,WeatherDisplay:10.37,2013-06-19 06:56:00,
2013-06-19 09:01:00,68.0,61.6,29.89,WSW,237,4.6,4.6,80,0.00,CLR,,0.00,WeatherDisplay:10.37,2013-06-19 07:01:00,
2013-06-19 09:06:00,68.4,62.0,29.89,SSE,162,4.6,4.6,80,0.00,CLR,,0.00,WeatherDisplay:10.37,2013-06-19 07:06:00,
2013-06-19 09:11:00,68.8,61.7,29.89,SW,231,4.6,4.6,78,0.00,CLR,,0.00,WeatherDisplay:10.37,2013-06-19 07:11:00,
2013-06-19 09:16:00,69.1,61.9,29.89,SW,236,5.8,5.8,78,0.00,CLR,,0.00,WeatherDisplay:10.37,2013-06-19 07:16:00,
2013-06-19 09:21:00,69.5,62.3,29.90,SSW,201,3.5,3.5,78,0.00,CLR,,0.00,WeatherDisplay:10.37,2013-06-19 07:21:00,
2013-06-19 09:26:00,70.0,62.1,29.90,SSW,204,6.9,6.9,76,0.00,CLR,,0.00,WeatherDisplay:10.37,2013-06-19 07:26:00,
2013-06-19 09:31:00,70.0,61.7,29.90,South,174,5.8,5.8,75,0.00,CLR,,0.00,WeatherDisplay:10.37,2013-06-19 07:31:00,
2013-06-19 09:36:00,70.2,61.9,29.90,West,274,5.8,5.8,75,0.00,CLR,,0.00,WeatherDisplay:10.37,2013-06-19 07:36:00,
2013-06-19 09:41:00,70.6,61.9,29.90,West,273,3.5,3.5,74,0.00,CLR,,0.00,WeatherDisplay:10.37,2013-06-19 07:41:00,
2013-06-19 09:46:00,71.1,62.4,29.90,South,183,6.9,6.9,74,0.00,CLR,,0.00,WeatherDisplay:10.37,2013-06-19 07:46:00,
2013-06-19 09:51:00,71.3,62.2,29.90,WSW,240,6.9,6.9,73,0.00,CLR,,0.00,WeatherDisplay:10.37,2013-06-19 07:51:00,
2013-06-19 09:56:00,71.5,61.6,29.90,SSW,208,9.0,9.0,71,0.00,CLR,,0.00,WeatherDisplay:10.37,2013-06-19 07:56:00,
2013-06-19 10:01:00,71.4,61.1,29.90,West,276,5.0,5.0,70,0.00,CLR,,0.00,WeatherDisplay:10.37,2013-06-19 08:01:00,
2013-06-19 10:06:00,71.5,60.8,29.90,SW,223,8.1,8.1,69,0.00,CLR,,0.00,WeatherDisplay:10.37,2013-06-19 08:06:00,
2013-06-19 10:11:00,72.0,61.3,29.90,SW,219,4.6,4.6,69,0.00,CLR,,0.00,WeatherDisplay:10.37,2013-06-19 08:11:00,
2013-06-19 10:16:00,72.5,60.5,29.91,WSW,241,8.1,8.1,66,0.00,CLR,,0.00,WeatherDisplay:10.37,2013-06-19 08:16:00,
2013-06-19 10:21:00,72.4,60.0,29.90,SSW,211,10.4,10.4,65,0.00,CLR,,0.00,WeatherDisplay:10.37,2013-06-19 08:21:00,
2013-06-19 10:26:00,72.5,60.1,29.91,SSW,210,1.1,0.0,65,0.00,CLR,,0.00,WeatherDisplay:10.37,2013-06-19 08:26:00,
2013-06-19 10:31:00,73.4,63.0,29.91,South,185,8.1,8.1,70,0.00,CLR,,0.00,WeatherDisplay:10.37,2013-06-19 08:31:00,
2013-06-19 10:36:00,73.3,63.3,29.91,South,191,8.1,8.1,71,0.00,CLR,,0.00,WeatherDisplay:10.37,2013-06-19 08:36:00,
2013-06-19 10:41:00,72.9,62.9,29.91,South,191,6.0,6.0,71,0.00,CLR,,0.00,WeatherDisplay:10.37,2013-06-19 08:41:00,
2013-06-19 10:46:00,73.0,63.0,29.91,SSW,201,6.9,6.9,71,0.00,CLR,,0.00,WeatherDisplay:10.37,2013-06-19 08:46:00,
2013-06-19 10:51:00,73.7,62.1,29.91,South,179,10.4,10.4,67,0.00,CLR,,0.00,WeatherDisplay:10.37,2013-06-19 08:51:00,
2013-06-19 10:56:00,73.8,61.3,29.91,WSW,243,4.6,4.6,65,0.00,CLR,,0.00,WeatherDisplay:10.37,2013-06-19 08:56:00,
2013-06-19 11:01:00,73.6,61.1,29.91,SSW,207,5.8,5.8,65,0.00,CLR,,0.00,WeatherDisplay:10.37,2013-06-19 09:01:00,
2013-06-19 11:06:00,74.4,63.1,29.91,SSE,150,3.5,3.5,68,0.00,CLR,,0.00,WeatherDisplay:10.37,2013-06-19 09:06:00,
2013-06-19 11:11:00,75.2,63.5,29.91,South,191,9.2,9.2,67,0.00,CLR,,0.00,WeatherDisplay:10.37,2013-06-19 09:11:00,
2013-06-19 11:16:00,74.3,63.9,29.92,SSW,201,9.2,9.2,70,0.00,CLR,,0.00,WeatherDisplay:10.37,2013-06-19 09:16:00,
2013-06-19 11:21:00,74.2,60.3,29.92,WSW,240,9.2,9.2,62,0.00,CLR,,0.00,WeatherDisplay:10.37,2013-06-19 09:21:00,
2013-06-19 11:26:00,74.2,60.8,29.92,WSW,239,6.0,6.0,63,0.00,CLR,,0.00,WeatherDisplay:10.37,2013-06-19 09:26:00,
2013-06-19 11:31:00,74.6,59.8,29.92,SW,225,9.2,9.2,60,0.00,CLR,,0.00,WeatherDisplay:10.37,2013-06-19 09:31:00,
2013-06-19 11:36:00,74.7,57.5,29.92,WSW,239,11.5,11.5,55,0.00,CLR,,0.00,WeatherDisplay:10.37,2013-06-19 09:36:00,
2013-06-19 11:41:00,74.9,57.1,29.92,WSW,243,15.0,15.0,54,0.00,CLR,,0.00,WeatherDisplay:10.37,2013-06-19 09:41:00,
2013-06-19 11:46:00,75.2,58.4,29.92,SSW,210,9.2,9.2,56,0.00,CLR,,0.00,WeatherDisplay:10.37,2013-06-19 09:46:00,
2013-06-19 11:51:00,75.5,57.7,29.92,SW,224,15.0,15.0,54,0.00,CLR,,0.00,WeatherDisplay:10.37,2013-06-19 09:51:00,
2013-06-19 11:56:00,75.4,60.1,29.92,WSW,245,14.0,14.0,59,0.00,CLR,,0.00,WeatherDisplay:10.37,2013-06-19 09:56:00,
2013-06-19 12:01:00,75.1,57.3,29.92,SW,229,13.0,13.0,54,0.00,CLR,,0.00,WeatherDisplay:10.37,2013-06-19 10:01:00,
2013-06-19 12:06:00,75.2,57.4,29.92,WSW,249,21.0,21.0,54,0.00,CLR,,0.00,WeatherDisplay:10.37,2013-06-19 10:06:00,
2013-06-19 12:11:00,74.5,60.2,29.92,SW,235,23.0,23.0,61,0.00,CLR,,0.00,WeatherDisplay:10.37,2013-06-19 10:11:00,
2013-06-19 12:16:00,73.9,60.1,29.92,SW,233,19.6,19.6,62,0.00,CLR,,0.00,WeatherDisplay:10.37,2013-06-19 10:16:00,
2013-06-19 12:21:00,73.4,59.6,29.92,SW,226,19.6,19.6,62,0.00,CLR,,0.00,WeatherDisplay:10.37,2013-06-19 10:21:00,
2013-06-19 12:26:00,73.9,58.7,29.92,WSW,237,19.6,19.6,59,0.00,CLR,,0.00,WeatherDisplay:10.37,2013-06-19 10:26:00,
2013-06-19 12:31:00,73.6,60.2,29.92,SW,233,23.0,23.0,63,0.00,CLR,,0.00,WeatherDisplay:10.37,2013-06-19 10:31:00,
2013-06-19 12:36:00,73.7,59.9,29.92,WSW,243,18.4,18.4,62,0.00,CLR,,0.00,WeatherDisplay:10.37,2013-06-19 10:36:00,
2013-06-19 12:41:00,73.8,60.4,29.93,SW,218,18.4,18.4,63,0.00,CLR,,0.00,WeatherDisplay:10.37,2013-06-19 10:41:00,
2013-06-19 12:46:00,74.1,60.7,29.92,WSW,253,15.0,15.0,63,0.00,CLR,,0.00,WeatherDisplay:10.37,2013-06-19 10:46:00,
2013-06-19 12:51:00,74.0,60.2,29.92,West,276,23.0,23.0,62,0.00,CLR,,0.00,WeatherDisplay:10.37,2013-06-19 10:51:00,
2013-06-19 12:56:00,74.3,59.5,29.92,WSW,239,18.4,18.4,60,0.00,CLR,,0.00,WeatherDisplay:10.37,2013-06-19 10:56:00,
2013-06-19 13:01:00,74.9,57.6,29.92,SW,233,19.6,19.6,55,0.00,CLR,,0.00,WeatherDisplay:10.37,2013-06-19 11:01:00,
2013-06-19 13:06:00,75.0,58.2,29.92,WSW,246,21.9,21.9,56,0.00,CLR,,0.00,WeatherDisplay:10.37,2013-06-19 11:06:00,
2013-06-19 13:11:00,74.7,56.9,29.92,WSW,240,24.2,24.2,54,0.00,CLR,,0.00,WeatherDisplay:10.37,2013-06-19 11:11:00,
2013-06-19 13:16:00,74.5,56.2,29.92,WSW,241,25.3,25.3,53,0.00,CLR,,0.00,WeatherDisplay:10.37,2013-06-19 11:16:00,
2013-06-19 13:21:00,75.4,53.2,29.92,SW,228,23.0,23.0,46,0.00,CLR,,0.00,WeatherDisplay:10.37,2013-06-19 11:21:00,
2013-06-19 13:26:00,75.1,54.1,29.92,WSW,237,24.2,24.2,48,0.00,CLR,,0.00,WeatherDisplay:10.37,2013-06-19 11:26:00,
2013-06-19 13:31:00,74.8,54.4,29.92,WNW,302,21.9,21.9,49,0.00,CLR,,0.00,WeatherDisplay:10.37,2013-06-19 11:31:00,
2013-06-19 13:36:00,74.9,53.3,29.92,SW,230,20.7,20.7,47,0.00,CLR,,0.00,WeatherDisplay:10.37,2013-06-19 11:36:00,
2013-06-19 13:41:00,74.7,54.3,29.92,SW,233,21.9,21.9,49,0.00,CLR,,0.00,WeatherDisplay:10.37,2013-06-19 11:41:00,
2013-06-19 13:46:00,75.3,55.4,29.92,WSW,245,17.3,17.3,50,0.00,CLR,,0.00,WeatherDisplay:10.37,2013-06-19 11:46:00,
2013-06-19 13:51:00,74.8,54.9,29.92,SW,235,26.5,26.5,50,0.00,CLR,,0.00,WeatherDisplay:10.37,2013-06-19 11:51:00,
2013-06-19 13:56:00,74.3,53.3,29.92,SW,231,22.0,22.0,48,0.00,CLR,,0.00,WeatherDisplay:10.37,2013-06-19 11:56:00,
2013-06-19 14:01:00,75.1,52.9,29.92,SW,218,21.0,21.0,46,0.00,CLR,,0.00,WeatherDisplay:10.37,2013-06-19 12:01:00,
2013-06-19 14:06:00,74.6,53.0,29.92,WSW,238,20.7,20.7,47,0.00,CLR,,0.00,WeatherDisplay:10.37,2013-06-19 12:06:00,
2013-06-19 14:11:00,74.6,53.0,29.92,SW,226,19.6,19.6,47,0.00,CLR,,0.00,WeatherDisplay:10.37,2013-06-19 12:11:00,
2013-06-19 14:16:00,75.1,52.9,29.92,SW,233,21.9,21.9,46,0.00,CLR,,0.00,WeatherDisplay:10.37,2013-06-19 12:16:00,
2013-06-19 14:21:00,74.8,53.8,29.92,SW,233,19.6,19.6,48,0.00,CLR,,0.00,WeatherDisplay:10.37,2013-06-19 12:21:00,
2013-06-19 14:26:00,75.0,52.8,29.92,WSW,249,21.9,21.9,46,0.00,CLR,,0.00,WeatherDisplay:10.37,2013-06-19 12:26:00,
2013-06-19 14:31:00,75.1,52.9,29.92,SW,231,25.3,25.3,46,0.00,CLR,,0.00,WeatherDisplay:10.37,2013-06-19 12:31:00,
2013-06-19 14:36:00,74.9,52.7,29.92,WSW,255,23.0,23.0,46,0.00,CLR,,0.00,WeatherDisplay:10.37,2013-06-19 12:36:00,
2013-06-19 14:41:00,74.7,52.5,29.92,SW,231,24.2,24.2,46,0.00,CLR,,0.00,WeatherDisplay:10.37,2013-06-19 12:41:00,
2013-06-19 14:46:00,74.7,53.7,29.92,West,264,21.9,21.9,48,0.00,CLR,,0.00,WeatherDisplay:10.37,2013-06-19 12:46:00,
2013-06-19 14:51:00,75.4,53.8,29.92,WSW,251,19.6,19.6,47,0.00,CLR,,0.00,WeatherDisplay:10.37,2013-06-19 12:51:00,
2013-06-19 14:56:00,75.4,53.2,29.92,WSW,248,21.9,21.9,46,0.00,CLR,,0.00,WeatherDisplay:10.37,2013-06-19 12:56:00,
2013-06-19 15:01:00,75.0,52.8,29.92,WSW,243,19.6,19.6,46,0.00,CLR,,0.00,WeatherDisplay:10.37,2013-06-19 13:01:00,
2013-06-19 15:06:00,74.9,50.9,29.92,WSW,239,24.0,24.0,43,0.00,CLR,,0.00,WeatherDisplay:10.37,2013-06-19 13:06:00,
2013-06-19 15:11:00,75.5,52.1,29.93,WSW,239,24.2,24.2,44,0.00,CLR,,0.00,WeatherDisplay:10.37,2013-06-19 13:11:00,
2013-06-19 15:16:00,75.3,51.9,29.93,SW,226,21.9,21.9,44,0.00,CLR,,0.00,WeatherDisplay:10.37,2013-06-19 13:16:00,
2013-06-19 15:21:00,75.1,52.9,29.92,SW,225,19.6,19.6,46,0.00,CLR,,0.00,WeatherDisplay:10.37,2013-06-19 13:21:00,
2013-06-19 15:26:00,75.6,54.5,29.92,SW,234,21.0,21.0,48,0.00,CLR,,0.00,WeatherDisplay:10.37,2013-06-19 13:26:00,
2013-06-19 15:31:00,75.3,53.1,29.93,SW,228,19.6,19.6,46,0.00,CLR,,0.00,WeatherDisplay:10.37,2013-06-19 13:31:00,
2013-06-19 15:36:00,75.9,53.6,29.93,WSW,237,24.2,24.2,46,0.00,CLR,,0.00,WeatherDisplay:10.37,2013-06-19 13:36:00,
2013-06-19 15:41:00,75.4,53.2,29.93,WSW,243,21.9,21.9,46,0.00,CLR,,0.00,WeatherDisplay:10.37,2013-06-19 13:41:00,
2013-06-19 15:46:00,75.0,54.0,29.93,West,260,20.7,20.7,48,0.00,CLR,,0.00,WeatherDisplay:10.37,2013-06-19 13:46:00,
2013-06-19 15:51:00,74.9,53.9,29.93,SW,224,21.0,21.0,48,0.00,CLR,,0.00,WeatherDisplay:10.37,2013-06-19 13:51:00,
2013-06-19 15:56:00,74.6,53.6,29.93,West,261,21.9,21.9,48,0.00,CLR,,0.00,WeatherDisplay:10.37,2013-06-19 13:56:00,
2013-06-19 16:01:00,74.9,51.5,29.93,West,264,21.9,21.9,44,0.00,CLR,,0.00,WeatherDisplay:10.37,2013-06-19 14:01:00,
2013-06-19 16:06:00,75.2,53.0,29.93,SW,224,24.2,24.2,46,0.00,CLR,,0.00,WeatherDisplay:10.37,2013-06-19 14:06:00,
2013-06-19 16:11:00,74.8,52.6,29.93,SW,227,20.7,20.7,46,0.00,CLR,,0.00,WeatherDisplay:10.37,2013-06-19 14:11:00,
2013-06-19 16:16:00,75.2,50.5,29.93,WSW,240,25.3,25.3,42,0.00,CLR,,0.00,WeatherDisplay:10.37,2013-06-19 14:16:00,
2013-06-19 16:21:00,75.0,53.4,29.93,WSW,258,18.4,18.4,47,0.00,CLR,,0.00,WeatherDisplay:10.37,2013-06-19 14:21:00,
2013-06-19 16:26:00,74.9,52.1,29.93,WSW,250,24.2,24.2,45,0.00,CLR,,0.00,WeatherDisplay:10.37,2013-06-19 14:26:00,
2013-06-19 16:31:00,75.5,52.7,29.93,WSW,244,18.4,18.4,45,0.00,CLR,,0.00,WeatherDisplay:10.37,2013-06-19 14:31:00,
2013-06-19 16:36:00,74.3,53.3,29.93,WSW,238,23.0,23.0,48,0.00,CLR,,0.00,WeatherDisplay:10.37,2013-06-19 14:36:00,
2013-06-19 16:41:00,73.5,52.6,29.93,SW,230,23.0,23.0,48,0.00,CLR,,0.00,WeatherDisplay:10.37,2013-06-19 14:41:00,
2013-06-19 16:46:00,74.0,53.1,29.93,WSW,246,20.7,20.7,48,0.00,CLR,,0.00,WeatherDisplay:10.37,2013-06-19 14:46:00,
2013-06-19 16:51:00,73.8,53.4,29.93,SW,233,18.4,18.4,49,0.00,CLR,,0.00,WeatherDisplay:10.37,2013-06-19 14:51:00,
2013-06-19 16:56:00,73.5,53.7,29.93,WSW,238,23.0,23.0,50,0.00,CLR,,0.00,WeatherDisplay:10.37,2013-06-19 14:56:00,
2013-06-19 17:01:00,73.1,53.4,29.93,WSW,237,26.5,26.5,50,0.00,CLR,,0.00,WeatherDisplay:10.37,2013-06-19 15:01:00,
2013-06-19 17:06:00,72.5,54.4,29.93,SW,233,24.2,24.2,53,0.00,CLR,,0.00,WeatherDisplay:10.37,2013-06-19 15:06:00,
2013-06-19 17:11:00,72.8,54.1,29.93,WSW,249,19.6,19.6,52,0.00,CLR,,0.00,WeatherDisplay:10.37,2013-06-19 15:11:00,
2013-06-19 17:16:00,72.5,54.4,29.94,WSW,255,20.7,20.7,53,0.00,CLR,,0.00,WeatherDisplay:10.37,2013-06-19 15:16:00,
2013-06-19 17:21:00,72.5,54.4,29.94,West,261,19.6,19.6,53,0.00,CLR,,0.00,WeatherDisplay:10.37,2013-06-19 15:21:00,
2013-06-19 17:26:00,73.4,53.6,29.94,West,265,19.6,19.6,50,0.00,CLR,,0.00,WeatherDisplay:10.37,2013-06-19 15:26:00,
2013-06-19 17:31:00,73.3,54.6,29.94,SW,236,22.0,22.0,52,0.00,CLR,,0.00,WeatherDisplay:10.37,2013-06-19 15:31:00,
2013-06-19 17:36:00,73.1,54.9,29.94,WSW,241,16.1,16.1,53,0.00,CLR,,0.00,WeatherDisplay:10.37,2013-06-19 15:36:00,
2013-06-19 17:41:00,72.5,54.9,29.94,WSW,237,19.6,19.6,54,0.00,CLR,,0.00,WeatherDisplay:10.37,2013-06-19 15:41:00,
2013-06-19 17:46:00,72.2,54.1,29.94,SW,231,19.6,19.6,53,0.00,CLR,,0.00,WeatherDisplay:10.37,2013-06-19 15:46:00,
2013-06-19 17:51:00,72.2,54.1,29.94,WSW,238,19.6,19.6,53,0.00,CLR,,0.00,WeatherDisplay:10.37,2013-06-19 15:51:00,
2013-06-19 17:56:00,71.8,54.8,29.94,SW,234,19.6,19.6,55,0.00,CLR,,0.00,WeatherDisplay:10.37,2013-06-19 15:56:00,
2013-06-19 18:01:00,71.7,54.7,29.94,SW,224,20.7,20.7,55,0.00,CLR,,0.00,WeatherDisplay:10.37,2013-06-19 16:01:00,
2013-06-19 18:06:00,72.3,54.7,29.94,WSW,257,11.5,11.5,54,0.00,CLR,,0.00,WeatherDisplay:10.37,2013-06-19 16:06:00,
2013-06-19 18:11:00,72.2,54.6,29.94,WSW,239,16.1,16.1,54,0.00,CLR,,0.00,WeatherDisplay:10.37,2013-06-19 16:11:00,
2013-06-19 18:16:00,72.2,54.6,29.94,SW,234,15.0,15.0,54,0.00,CLR,,0.00,WeatherDisplay:10.37,2013-06-19 16:16:00,
2013-06-19 18:21:00,71.7,54.2,29.94,WSW,256,21.9,21.9,54,0.00,CLR,,0.00,WeatherDisplay:10.37,2013-06-19 16:21:00,
2013-06-19 18:26:00,71.3,54.8,29.95,SW,234,21.9,21.9,56,0.00,CLR,,0.00,WeatherDisplay:10.37,2013-06-19 16:26:00,
2013-06-19 18:31:00,71.4,54.9,29.95,WSW,251,18.4,18.4,56,0.00,CLR,,0.00,WeatherDisplay:10.37,2013-06-19 16:31:00,
2013-06-19 18:36:00,71.4,54.4,29.95,SW,217,18.4,18.4,55,0.00,CLR,,0.00,WeatherDisplay:10.37,2013-06-19 16:36:00,
2013-06-19 18:41:00,71.2,55.2,29.95,WSW,245,19.6,19.6,57,0.00,CLR,,0.00,WeatherDisplay:10.37,2013-06-19 16:41:00,
2013-06-19 18:46:00,70.6,54.6,29.95,WSW,248,19.0,19.0,57,0.00,CLR,,0.00,WeatherDisplay:10.37,2013-06-19 16:46:00,
2013-06-19 18:51:00,70.3,55.3,29.94,West,268,13.8,13.8,59,0.00,CLR,,0.00,WeatherDisplay:10.37,2013-06-19 16:51:00,
2013-06-19 18:56:00,70.2,56.1,29.94,WSW,241,19.6,19.6,61,0.00,CLR,,0.00,WeatherDisplay:10.37,2013-06-19 16:56:00,
2013-06-19 19:01:00,70.3,55.8,29.94,SW,229,17.3,17.3,60,0.00,CLR,,0.00,WeatherDisplay:10.37,2013-06-19 17:01:00,
2013-06-19 19:06:00,69.9,55.8,29.94,WSW,247,13.8,13.8,61,0.00,CLR,,0.00,WeatherDisplay:10.37,2013-06-19 17:06:00,
2013-06-19 19:11:00,69.7,56.1,29.95,WSW,251,12.7,12.7,62,0.00,CLR,,0.00,WeatherDisplay:10.37,2013-06-19 17:11:00,
2013-06-19 19:16:00,70.2,56.6,29.94,SW,226,13.8,13.8,62,0.00,CLR,,0.00,WeatherDisplay:10.37,2013-06-19 17:16:00,
2013-06-19 19:21:00,70.6,57.4,29.95,WSW,253,11.5,11.5,63,0.00,CLR,,0.00,WeatherDisplay:10.37,2013-06-19 17:21:00,
2013-06-19 19:26:00,71.1,57.0,29.95,SW,230,15.0,15.0,61,0.00,CLR,,0.00,WeatherDisplay:10.37,2013-06-19 17:26:00,
2013-06-19 19:31:00,71.0,55.9,29.95,WSW,251,13.8,13.8,59,0.00,CLR,,0.00,WeatherDisplay:10.37,2013-06-19 17:31:00,
2013-06-19 19:36:00,71.3,56.2,29.95,WSW,238,17.3,17.3,59,0.00,CLR,,0.00,WeatherDisplay:10.37,2013-06-19 17:36:00,
2013-06-19 19:41:00,70.3,56.2,29.95,SW,227,17.3,17.3,61,0.00,CLR,,0.00,WeatherDisplay:10.37,2013-06-19 17:41:00,
2013-06-19 19:46:00,70.0,56.8,29.95,WSW,237,16.0,16.0,63,0.00,CLR,,0.00,WeatherDisplay:10.37,2013-06-19 17:46:00,
2013-06-19 19:51:00,69.4,56.7,29.95,SW,230,16.1,16.1,64,0.00,CLR,,0.00,WeatherDisplay:10.37,2013-06-19 17:51:00,
2013-06-19 19:56:00,69.3,57.5,29.95,WSW,240,13.8,13.8,66,0.00,CLR,,0.00,WeatherDisplay:10.37,2013-06-19 17:56:00,
2013-06-19 20:01:00,69.6,57.7,29.95,SW,227,14.0,14.0,66,0.00,CLR,,0.00,WeatherDisplay:10.37,2013-06-19 18:01:00,
2013-06-19 20:06:00,69.5,57.2,29.96,WSW,251,12.7,12.7,65,0.00,CLR,,0.00,WeatherDisplay:10.37,2013-06-19 18:06:00,
2013-06-19 20:11:00,69.8,57.9,29.96,WSW,253,12.7,12.7,66,0.00,CLR,,0.00,WeatherDisplay:10.37,2013-06-19 18:11:00,
2013-06-19 20:16:00,69.5,57.6,29.96,WSW,255,11.5,11.5,66,0.00,CLR,,0.00,WeatherDisplay:10.37,2013-06-19 18:16:00,
2013-06-19 20:21:00,69.5,57.6,29.96,SW,227,10.4,10.4,66,0.00,CLR,,0.00,WeatherDisplay:10.37,2013-06-19 18:21:00,
2013-06-19 20:26:00,69.0,58.0,29.96,West,274,13.8,13.8,68,0.00,CLR,,0.00,WeatherDisplay:10.37,2013-06-19 18:26:00,
2013-06-19 20:31:00,68.9,57.9,29.96,West,278,12.7,12.7,68,0.00,CLR,,0.00,WeatherDisplay:10.37,2013-06-19 18:31:00,
2013-06-19 20:36:00,68.9,57.9,29.96,WSW,247,11.5,11.5,68,0.00,CLR,,0.00,WeatherDisplay:10.37,2013-06-19 18:36:00,
2013-06-19 20:41:00,68.7,58.1,29.97,West,280,10.4,10.4,69,0.00,CLR,,0.00,WeatherDisplay:10.37,2013-06-19 18:41:00,
2013-06-19 20:46:00,68.5,58.3,29.97,SW,228,13.8,13.8,70,0.00,CLR,,0.00,WeatherDisplay:10.37,2013-06-19 18:46:00,
2013-06-19 20:51:00,68.1,58.3,29.97,WSW,241,14.0,14.0,71,0.00,CLR,,0.00,WeatherDisplay:10.37,2013-06-19 18:51:00,
2013-06-19 20:56:00,67.9,58.5,29.97,WSW,241,13.8,13.8,72,0.00,CLR,,0.00,WeatherDisplay:10.37,2013-06-19 18:56:00,
2013-06-19 21:01:00,67.7,58.7,29.97,WSW,255,12.7,12.7,73,0.00,CLR,,0.00,WeatherDisplay:10.37,2013-06-19 19:01:00,
2013-06-19 21:06:00,67.5,58.5,29.97,West,259,9.2,9.2,73,0.00,CLR,,0.00,WeatherDisplay:10.37,2013-06-19 19:06:00,
2013-06-19 21:11:00,67.4,58.8,29.97,WSW,237,12.7,12.7,74,0.00,CLR,,0.00,WeatherDisplay:10.37,2013-06-19 19:11:00,
2013-06-19 21:16:00,67.3,59.1,29.97,West,260,13.8,13.8,75,0.00,CLR,,0.00,WeatherDisplay:10.37,2013-06-19 19:16:00,
2013-06-19 21:21:00,67.1,59.6,29.97,WSW,249,12.7,12.7,77,0.00,CLR,,0.00,WeatherDisplay:10.37,2013-06-19 19:21:00,
2013-06-19 21:26:00,66.9,59.8,29.98,WSW,243,11.5,11.5,78,0.00,CLR,,0.00,WeatherDisplay:10.37,2013-06-19 19:26:00,
2013-06-19 21:31:00,66.8,60.1,29.98,WSW,247,12.7,12.7,79,0.00,CLR,,0.00,WeatherDisplay:10.37,2013-06-19 19:31:00,
2013-06-19 21:36:00,66.7,60.0,29.98,West,265,11.5,11.5,79,0.00,CLR,,0.00,WeatherDisplay:10.37,2013-06-19 19:36:00,
2013-06-19 21:41:00,66.6,60.2,29.98,WSW,258,9.2,9.2,80,0.00,CLR,,0.00,WeatherDisplay:10.37,2013-06-19 19:41:00,
2013-06-19 21:46:00,66.5,60.5,29.98,West,276,10.4,10.4,81,0.00,CLR,,0.00,WeatherDisplay:10.37,2013-06-19 19:46:00,
2013-06-19 21:51:00,66.3,60.3,29.98,WNW,283,11.5,11.5,81,0.00,CLR,,0.00,WeatherDisplay:10.37,2013-06-19 19:51:00,
2013-06-19 21:56:00,66.2,60.2,29.98,West,262,10.4,10.4,81,0.00,CLR,,0.00,WeatherDisplay:10.37,2013-06-19 19:56:00,
2013-06-19 22:01:00,66.1,60.1,29.98,West,262,10.4,10.4,81,0.00,CLR,,0.00,WeatherDisplay:10.37,2013-06-19 20:01:00,
2013-06-19 22:06:00,66.0,60.3,29.98,WSW,241,9.0,9.0,82,0.00,CLR,,0.00,WeatherDisplay:10.37,2013-06-19 20:06:00,
2013-06-19 22:11:00,65.9,60.2,29.99,SW,223,10.4,10.4,82,0.00,CLR,,0.00,WeatherDisplay:10.37,2013-06-19 20:11:00,
2013-06-19 22:16:00,65.9,60.2,29.99,West,265,9.2,9.2,82,0.00,CLR,,0.00,WeatherDisplay:10.37,2013-06-19 20:16:00,
2013-06-19 22:21:00,65.8,60.2,29.99,WNW,288,7.0,7.0,82,0.00,CLR,,0.00,WeatherDisplay:10.37,2013-06-19 20:21:00,
2013-06-19 22:26:00,65.8,60.5,29.99,West,272,9.2,9.2,83,0.00,CLR,,0.00,WeatherDisplay:10.37,2013-06-19 20:26:00,
2013-06-19 22:31:00,65.8,60.5,29.99,WSW,252,10.4,10.4,83,0.00,CLR,,0.00,WeatherDisplay:10.37,2013-06-19 20:31:00,
2013-06-19 22:36:00,65.8,60.5,30.00,West,280,11.5,11.5,83,0.00,CLR,,0.00,WeatherDisplay:10.37,2013-06-19 20:36:00,
2013-06-19 22:41:00,65.8,60.8,29.99,West,268,10.4,10.4,84,0.00,CLR,,0.00,WeatherDisplay:10.37,2013-06-19 20:41:00,
2013-06-19 22:46:00,65.7,60.7,29.99,WSW,251,8.1,8.1,84,0.00,CLR,,0.00,WeatherDisplay:10.37,2013-06-19 20:46:00,
2013-06-19 22:51:00,65.6,60.6,30.00,West,276,9.2,9.2,84,0.00,CLR,,0.00,WeatherDisplay:10.37,2013-06-19 20:51:00,
2013-06-19 22:56:00,65.5,60.5,30.00,West,272,10.0,10.0,84,0.00,CLR,,0.00,WeatherDisplay:10.37,2013-06-19 20:56:00,
2013-06-19 23:01:00,65.5,60.5,30.00,West,275,10.4,10.4,84,0.00,CLR,,0.00,WeatherDisplay:10.37,2013-06-19 21:01:00,
2013-06-19 23:06:00,65.5,60.5,30.00,WSW,258,10.4,10.4,84,0.00,CLR,,0.00,WeatherDisplay:10.37,2013-06-19 21:06:00,
2013-06-19 23:11:00,65.5,60.5,30.00,West,278,9.2,9.2,84,0.00,CLR,,0.00,WeatherDisplay:10.37,2013-06-19 21:11:00,
2013-06-19 23:16:00,65.5,60.5,30.00,WNW,284,9.2,9.2,84,0.00,CLR,,0.00,WeatherDisplay:10.37,2013-06-19 21:16:00,
2013-06-19 23:21:00,65.4,60.1,30.00,West,264,11.5,11.5,83,0.00,CLR,,0.00,WeatherDisplay:10.37,2013-06-19 21:21:00,
2013-06-19 23:26:00,65.4,60.1,30.00,West,265,9.0,9.0,83,0.00,CLR,,0.00,WeatherDisplay:10.37,2013-06-19 21:26:00,
2013-06-19 23:31:00,65.3,60.0,30.00,West,276,11.5,11.5,83,0.00,CLR,,0.00,WeatherDisplay:10.37,2013-06-19 21:31:00,
2013-06-19 23:36:00,65.2,59.9,30.00,West,272,10.4,10.4,83,0.00,CLR,,0.00,WeatherDisplay:10.37,2013-06-19 21:36:00,
2013-06-19 23:41:00,65.3,59.7,29.99,West,268,9.2,9.2,82,0.00,CLR,,0.00,WeatherDisplay:10.37,2013-06-19 21:41:00,
2013-06-19 23:46:00,65.2,59.6,29.99,NNW,339,10.4,10.4,82,0.00,CLR,,0.00,WeatherDisplay:10.37,2013-06-19 21:46:00,
2013-06-19 23:51:00,65.2,59.6,29.99,West,265,9.2,9.2,82,0.00,CLR,,0.00,WeatherDisplay:10.37,2013-06-19 21:51:00,
2013-06-19 23:56:00,65.2,59.6,29.99,West,280,10.4,10.4,82,0.00,CLR,,0.00,WeatherDisplay:10.37,2013-06-19 21:56:00,